»·PEaware :: UAL2672 KSAN-KLAS

UAL2672 :: KSAN-KLAS

FLIGHT INFORMATION

Flight Status: Arrived
Operator:
United Airlines
More flights by this operator :: More flights under this callsign
Pilot: Kyle M. (9350)
Aircraft: AIRBUS A319
(A319)
More flights by this aircraft type
Origin: KSAN San Diego Intl-Lindbergh
United States
Destination: KLAS McCarran Intl
United States
More flights between these airports :: More routes between these airports
Route: +PADRZ2 CHKNN SEBBY YELAH MISEN KEPEC6
File this flight plan on PilotEdge
Remarks: RMK / SIMBRIEF CptCanada on YT!
Altitude:
(Current/Filed)
31,000ft
Speed:
(Current/Filed)
441kts
Departed: 01-Feb-20 12:52 PM
Arrived: 01-Feb-20 01:47 PM
Distance/Time
Traveled:
225nm/0:54
Distance/Time
To Go:
Arrived

Flight Plot

Page will automatically refresh every two minutes.

Flight plan parsing failed; only flown route is shown


Map Options




Map Legend


Flown Route
Filed Route
Departure Airport
Arrival Airport
Navaid (VOR, NDB)
Fix

Horizontal Profiles

Position Reports

Time Latitude Longitude Heading Altitude Ground
Speed
01-Feb-20 12:29 32.733444 -117.200540 262 26ft 0kts
01-Feb-20 12:30 32.733444 -117.200540 262 26ft 0kts
01-Feb-20 12:31 32.733444 -117.200540 262 26ft 0kts
01-Feb-20 12:32 32.733444 -117.200540 262 26ft 0kts
01-Feb-20 12:33 32.733444 -117.200540 262 26ft 0kts
01-Feb-20 12:34 32.733444 -117.200540 262 26ft 0kts
01-Feb-20 12:35 32.733444 -117.200540 262 26ft 0kts
01-Feb-20 12:36 32.733444 -117.200540 262 26ft 0kts
01-Feb-20 12:37 32.733444 -117.200540 262 26ft 0kts
01-Feb-20 12:38 32.733444 -117.200540 262 26ft 0kts
01-Feb-20 12:39 32.733444 -117.200540 262 26ft 0kts
01-Feb-20 12:40 32.733444 -117.200540 262 26ft 0kts
01-Feb-20 12:41 32.733444 -117.200540 262 26ft 0kts
01-Feb-20 12:42 32.733473 -117.200264 263 26ft 2kts
01-Feb-20 12:43 32.733267 -117.199833 20 26ft 1kts
01-Feb-20 12:44 32.733225 -117.199849 14 26ft 0kts
01-Feb-20 12:45 32.733403 -117.199797 13 26ft 4kts
01-Feb-20 12:46 32.734747 -117.199097 84 26ft 8kts
01-Feb-20 12:47 32.733804 -117.194966 105 26ft 16kts
01-Feb-20 12:48 32.732348 -117.188947 106 26ft 20kts
01-Feb-20 12:49 32.730673 -117.182061 106 26ft 22kts
01-Feb-20 12:50 32.729602 -117.176359 65 26ft 10kts
01-Feb-20 12:51 32.733830 -117.190797 286 26ft 150kts
01-Feb-20 12:52 32.755482 -117.241488 306 2403ft 191kts
01-Feb-20 12:53 32.790961 -117.304101 305 4517ft 271kts
01-Feb-20 12:54 32.837436 -117.378028 310 8143ft 290kts
01-Feb-20 12:55 32.888584 -117.457049 310 10929ft 326kts
01-Feb-20 12:56 32.949569 -117.551932 309 12899ft 384kts
01-Feb-20 12:57 33.015646 -117.655092 308 15821ft 399kts
01-Feb-20 12:58 33.089139 -117.756521 319 18390ft 410kts
01-Feb-20 12:59 33.171617 -117.839752 320 20477ft 421kts
01-Feb-20 13:00 33.264112 -117.928798 332 22437ft 434kts
01-Feb-20 13:01 33.383427 -117.922864 10 24181ft 443kts
01-Feb-20 13:02 33.506438 -117.896708 9 25788ft 454kts
01-Feb-20 13:03 33.632636 -117.870961 9 27198ft 464kts
01-Feb-20 13:04 33.760097 -117.844950 9 28850ft 463kts
01-Feb-20 13:05 33.886731 -117.818997 9 30503ft 457kts
01-Feb-20 13:06 34.011492 -117.793288 10 31287ft 454kts
01-Feb-20 13:07 34.122861 -117.725927 42 31292ft 455kts
01-Feb-20 13:08 34.204779 -117.609696 49 31349ft 454kts
01-Feb-20 13:09 34.285088 -117.491689 50 31403ft 453kts
01-Feb-20 13:10 34.365074 -117.373917 50 31418ft 453kts
01-Feb-20 13:11 34.444816 -117.255739 50 31419ft 452kts
01-Feb-20 13:12 34.524587 -117.137358 50 31419ft 452kts
01-Feb-20 13:13 34.604121 -117.019051 50 31425ft 451kts
01-Feb-20 13:14 34.683155 -116.901116 50 31440ft 450kts
01-Feb-20 13:15 34.762115 -116.782869 50 31452ft 450kts
01-Feb-20 13:16 34.842089 -116.665792 46 31446ft 450kts
01-Feb-20 13:17 34.936233 -116.565050 38 31163ft 452kts
01-Feb-20 13:18 35.035423 -116.468949 38 27886ft 461kts
01-Feb-20 13:19 35.129506 -116.370218 44 25496ft 441kts
01-Feb-20 13:20 35.213217 -116.265300 45 23353ft 424kts
01-Feb-20 13:21 35.293967 -116.163718 46 21321ft 408kts
01-Feb-20 13:22 35.371342 -116.066191 46 19334ft 393kts
01-Feb-20 13:23 35.446280 -115.971420 46 17267ft 381kts
01-Feb-20 13:24 35.518902 -115.879308 46 15295ft 369kts
01-Feb-20 13:25 35.589394 -115.789674 45 13327ft 360kts
01-Feb-20 13:26 35.653399 -115.708081 45 13060ft 298kts
01-Feb-20 13:27 35.707350 -115.639180 45 13062ft 270kts
01-Feb-20 13:28 35.762687 -115.578201 19 13060ft 268kts
01-Feb-20 13:29 35.837339 -115.571190 3 13063ft 269kts
01-Feb-20 13:30 35.912204 -115.567030 3 13058ft 269kts
01-Feb-20 13:31 35.979069 -115.537599 58 12630ft 271kts
01-Feb-20 13:32 36.006946 -115.450816 66 11434ft 269kts
01-Feb-20 13:33 36.029732 -115.364762 86 10994ft 255kts
01-Feb-20 13:34 36.023708 -115.276938 94 9937ft 256kts
01-Feb-20 13:35 36.017349 -115.189551 93 8875ft 249kts
01-Feb-20 13:36 36.011780 -115.107407 93 8354ft 236kts
01-Feb-20 13:37 36.006517 -115.029889 94 7892ft 209kts
01-Feb-20 13:38 36.001551 -114.959098 94 6921ft 203kts
01-Feb-20 13:39 35.996680 -114.891366 94 6603ft 195kts
01-Feb-20 13:40 36.030833 -114.866161 312 6081ft 195kts
01-Feb-20 13:41 36.050799 -114.928643 290 5492ft 194kts
01-Feb-20 13:42 36.069084 -114.990934 289 4314ft 191kts
01-Feb-20 13:43 36.073543 -115.052178 272 3466ft 155kts
01-Feb-20 13:44 36.073618 -115.103095 271 2587ft 146kts
01-Feb-20 13:45 36.073782 -115.143228 283 2190ft 44kts
01-Feb-20 13:46 36.076716 -115.146536 359 2190ft 15kts
01-Feb-20 13:47 36.078298 -115.143881 94 2190ft 17kts
01-Feb-20 13:48 36.080448 -115.141583 1 2190ft 12kts
01-Feb-20 13:49 36.080596 -115.140598 124 2190ft 0kts

Navigation Log

Ident Type
Flight plan parsing failed, navigation log unavailable